Time;durP1;ratioP1;P1;durP2;ratioP2;P2;SDS_P1;SDS_P2;PMS_P1;PMS_P2;Temp;Humidity;BMP_temperature;BMP_pressure;BME280_temperature;BME280_humidity;BME280_pressure;Samples;Min_cycle;Max_cycle;Signal;HPM_P1;HPM_P2
2022/09/19 00:02:26;;;;;;;0.75;0.70;;;;;;;10.83;82.11;99343.77;1605897;89;21223;-57
2022/09/19 00:05:31;;;;;;;0.50;0.50;;;;;;;10.79;82.11;99348.48;1588693;90;21298;-59
2022/09/19 00:08:38;;;;;;;0.88;0.50;;;;;;;10.77;82.13;99362.89;1605310;89;21283;-57
2022/09/19 00:11:47;;;;;;;0.60;0.60;;;;;;;10.75;82.12;99367.20;1588653;90;21266;-56
2022/09/19 00:14:55;;;;;;;3.08;0.70;;;;;;;10.76;82.16;99366.17;1605481;89;21267;-58
2022/09/19 00:18:01;;;;;;;0.60;0.60;;;;;;;10.79;82.17;99374.50;1588641;90;21262;-59
2022/09/19 00:21:08;;;;;;;1.20;0.55;;;;;;;10.83;82.19;99378.53;1605327;87;21227;-58
2022/09/19 00:27:42;;;;;;;0.75;0.60;;;;;;;10.84;82.16;99377.48;1605640;89;21361;-57
2022/09/19 00:30:47;;;;;;;0.40;0.40;;;;;;;10.80;82.11;99383.05;1588589;90;21268;-57
2022/09/19 00:33:56;;;;;;;0.57;0.47;;;;;;;10.75;82.09;99384.17;1612264;89;21943;-56
2022/09/19 00:37:04;;;;;;;0.70;0.70;;;;;;;10.70;82.08;99390.77;1612233;87;21276;-57
2022/09/19 00:40:14;;;;;;;5.67;0.82;;;;;;;10.65;82.08;99398.22;1611902;89;21233;-58
2022/09/19 00:43:20;;;;;;;0.60;0.60;;;;;;;10.63;82.07;99398.07;1591717;89;21268;-57
2022/09/19 00:46:27;;;;;;;3.50;0.65;;;;;;;10.58;82.06;99391.33;1612241;89;21268;-57
2022/09/19 00:49:32;;;;;;;1.32;0.70;;;;;;;10.57;82.06;99390.16;1612231;89;21313;-57
2022/09/19 00:52:43;;;;;;;0.90;0.70;;;;;;;10.58;82.12;99396.80;1612604;88;21236;-55
2022/09/19 00:55:49;;;;;;;0.50;0.50;;;;;;;10.63;82.15;99396.19;1607704;89;21204;-56
2022/09/19 00:58:57;;;;;;;0.53;0.53;;;;;;;10.69;82.11;99398.13;1609574;87;21341;-57
2022/09/19 01:02:04;;;;;;;1.17;0.70;;;;;;;10.73;82.12;99395.84;1612219;89;21268;-57
2022/09/19 01:05:11;;;;;;;0.70;0.60;;;;;;;10.70;82.07;99397.61;1612203;89;21241;-56
2022/09/19 01:08:43;;;;;;;0.88;0.60;;;;;;;10.73;82.05;99402.68;1612125;89;21268;-55
2022/09/19 01:12:31;;;;;;;0.93;0.70;;;;;;;10.74;82.06;99398.37;1585777;90;21267;-58
2022/09/19 01:16:09;;;;;;;1.15;0.70;;;;;;;10.81;82.12;99405.26;1619076;87;21266;-58
2022/09/19 01:20:08;;;;;;;1.07;0.98;;;;;;;10.86;82.15;99402.22;1632756;87;21297;-57
2022/09/19 01:23:41;;;;;;;3.08;0.70;;;;;;;10.93;82.16;99405.00;1659719;86;21236;-58
2022/09/19 01:27:12;;;;;;;0.90;0.70;;;;;;;10.95;82.11;99396.07;1660213;86;21224;-57
2022/09/19 01:30:20;;;;;;;1.07;0.80;;;;;;;10.92;82.08;99391.86;1660230;86;21208;-57
2022/09/19 01:33:27;;;;;;;0.80;0.80;;;;;;;10.88;82.06;99395.21;1660018;86;21303;-58
2022/09/19 01:36:33;;;;;;;0.80;0.78;;;;;;;10.83;82.08;99382.09;1660127;86;21365;-59
2022/09/19 01:39:42;;;;;;;0.78;0.70;;;;;;;10.80;82.06;99395.37;1660072;86;21235;-56
2022/09/19 01:42:59;;;;;;;1.02;0.93;;;;;;;10.77;82.07;99402.07;1660088;86;21217;-56
2022/09/19 01:45:59;;;;;;;1.72;1.00;;;;;;;10.76;82.06;99403.64;1660053;86;21255;-57
2022/09/19 01:49:25;;;;;;;3.90;1.00;;;;;;;10.73;82.06;99405.42;1660052;86;21252;-57
2022/09/19 01:53:03;;;;;;;0.70;0.70;;;;;;;10.70;82.08;99411.30;1660187;86;21236;-58
2022/09/19 01:56:53;;;;;;;1.47;1.00;;;;;;;10.68;82.07;99413.38;1657664;86;21220;-58
2022/09/19 02:00:07;;;;;;;2.83;0.80;;;;;;;10.67;82.12;99414.44;1660251;86;21256;-57
2022/09/19 02:04:07;;;;;;;3.12;1.00;;;;;;;10.68;82.20;99422.95;1660173;86;21288;-58
2022/09/19 02:07:42;;;;;;;2.00;1.17;;;;;;;10.70;82.24;99422.24;1660135;86;21216;-59
2022/09/19 02:11:00;;;;;;;1.80;0.90;;;;;;;10.77;82.32;99434.06;1660279;85;21338;-58
2022/09/19 02:14:17;;;;;;;1.30;0.80;;;;;;;10.85;82.32;99436.65;1660086;85;21275;-56
2022/09/19 02:17:32;;;;;;;1.10;0.93;;;;;;;10.90;82.35;99435.53;1642602;86;21243;-57
2022/09/19 02:20:38;;;;;;;2.45;1.22;;;;;;;10.97;82.39;99433.69;1652903;86;21189;-57
2022/09/19 02:24:05;;;;;;;5.03;1.10;;;;;;;11.03;82.34;99433.73;1649037;86;21224;-57
2022/09/19 02:27:17;;;;;;;1.02;0.90;;;;;;;11.07;82.29;99439.66;1648559;86;21212;-57
2022/09/19 02:30:26;;;;;;;4.08;1.10;;;;;;;11.11;82.24;99445.90;1649335;86;21240;-58
2022/09/19 02:33:31;;;;;;;2.40;1.37;;;;;;;11.11;82.18;99440.42;1648878;86;21221;-56
2022/09/19 02:37:00;;;;;;;2.50;1.10;;;;;;;11.16;82.19;99448.02;1648456;86;21221;-56
2022/09/19 02:40:32;;;;;;;0.98;0.85;;;;;;;11.19;82.13;99444.87;1648603;86;21317;-57
2022/09/19 02:43:52;;;;;;;1.98;1.20;;;;;;;11.20;82.11;99451.52;1648857;86;21300;-57
2022/09/19 02:47:24;;;;;;;1.37;1.07;;;;;;;11.22;82.08;99455.42;1602936;89;21475;-59
2022/09/19 02:50:59;;;;;;;2.17;1.20;;;;;;;11.23;82.08;99454.36;1648411;86;21256;-57
2022/09/19 02:54:18;;;;;;;1.45;1.07;;;;;;;11.24;82.05;99460.19;1648414;86;21248;-57
2022/09/19 02:57:25;;;;;;;1.50;0.98;;;;;;;11.26;82.08;99463.55;1633339;86;21264;-56
2022/09/19 03:00:33;;;;;;;1.15;1.00;;;;;;;11.28;82.08;99476.52;1648728;86;21224;-57
2022/09/19 03:07:36;;;;;;;1.50;1.20;;;;;;;11.31;82.04;99486.56;1648456;86;21236;-57
2022/09/19 03:10:46;;;;;;;2.65;1.02;;;;;;;11.34;82.00;99490.78;1603301;89;21789;-58
2022/09/19 03:13:58;;;;;;;1.32;0.80;;;;;;;11.35;81.96;99491.13;1647959;86;21442;-57
2022/09/19 03:17:06;;;;;;;2.42;1.20;;;;;;;11.35;81.92;99485.64;1648701;86;21210;-58
2022/09/19 03:20:14;;;;;;;1.98;1.67;;;;;;;11.35;81.90;99495.23;1645639;84;21224;-56
2022/09/19 03:23:22;;;;;;;1.37;1.07;;;;;;;11.34;81.85;99495.74;1626254;86;21264;-57
2022/09/19 03:26:31;;;;;;;2.80;1.00;;;;;;;11.34;81.82;99497.63;1627968;87;21270;-57
2022/09/19 03:29:30;;;;;;;1.20;1.10;;;;;;;11.34;81.84;99506.70;1630167;86;21269;-58
2022/09/19 03:32:35;;;;;;;1.70;1.02;;;;;;;11.37;81.86;99512.33;1629948;87;21257;-57
2022/09/19 03:35:41;;;;;;;1.82;1.47;;;;;;;11.36;81.81;99518.31;1629526;87;21775;-57
2022/09/19 03:38:48;;;;;;;2.95;1.22;;;;;;;11.38;81.79;99526.33;1647911;86;21308;-56
2022/09/19 03:41:55;;;;;;;3.98;1.40;;;;;;;11.37;81.73;99524.66;1629672;87;21275;-58
2022/09/19 03:45:01;;;;;;;1.30;1.20;;;;;;;11.35;81.72;99531.67;1647674;86;21234;-60
2022/09/19 03:48:08;;;;;;;1.75;1.45;;;;;;;11.34;81.67;99534.62;1629782;86;21290;-58
2022/09/19 03:51:14;;;;;;;3.17;1.75;;;;;;;11.33;81.69;99535.16;1648214;86;21351;-58
2022/09/19 03:54:23;;;;;;;4.03;2.27;;;;;;;11.32;81.66;99540.30;1629445;86;21263;-57
2022/09/19 03:57:30;;;;;;;4.78;2.30;;;;;;;11.31;81.65;99541.88;1647634;86;21272;-58
2022/09/19 04:00:36;;;;;;;4.08;1.85;;;;;;;11.31;81.69;99546.84;1630009;87;21212;-57
2022/09/19 04:03:44;;;;;;;3.12;1.65;;;;;;;11.33;81.72;99550.75;1648611;86;21233;-56
2022/09/19 04:06:51;;;;;;;2.83;1.30;;;;;;;11.33;81.70;99546.13;1638837;87;21236;-59
2022/09/19 04:09:58;;;;;;;2.40;1.70;;;;;;;11.35;81.73;99554.97;1633253;86;21240;-56
2022/09/19 04:13:07;;;;;;;5.17;1.60;;;;;;;11.37;81.72;99563.02;1630182;86;21243;-61
2022/09/19 04:16:14;;;;;;;2.55;1.60;;;;;;;11.39;81.75;99563.12;1648180;86;21268;-59
2022/09/19 04:19:25;;;;;;;3.58;1.50;;;;;;;11.41;81.77;99574.73;1614606;87;21202;-60
2022/09/19 04:22:37;;;;;;;3.75;1.65;;;;;;;11.45;81.75;99573.79;1617752;87;21185;-59
2022/09/19 04:25:43;;;;;;;2.55;1.65;;;;;;;11.45;81.69;99582.87;1640805;87;21596;-58
2022/09/19 04:28:50;;;;;;;2.77;1.57;;;;;;;11.45;81.68;99584.75;1633922;88;21248;-59
2022/09/19 04:32:02;;;;;;;2.75;1.77;;;;;;;11.47;81.71;99596.36;1653409;86;21245;-60
2022/09/19 04:35:06;;;;;;;5.30;3.27;;;;;;;11.47;81.70;99598.59;1636601;87;21208;-58
2022/09/19 04:38:18;;;;;;;4.97;2.90;;;;;;;11.50;81.71;99600.08;1636658;87;21220;-58
2022/09/19 04:41:25;;;;;;;3.67;1.82;;;;;;;11.51;81.69;99598.50;1637055;87;21732;-59
2022/09/19 04:44:32;;;;;;;2.55;1.75;;;;;;;11.53;81.68;99594.19;1636171;87;21247;-59
2022/09/19 04:47:49;;;;;;;3.77;1.85;;;;;;;11.54;81.69;99606.31;1635003;87;21313;-59
2022/09/19 04:50:57;;;;;;;3.67;2.12;;;;;;;11.59;81.74;99603.00;1621091;87;21403;-58
2022/09/19 04:54:05;;;;;;;2.95;1.72;;;;;;;11.63;81.74;99613.91;1637239;86;21237;-57
2022/09/19 04:57:13;;;;;;;5.03;2.30;;;;;;;11.66;81.72;99621.21;1662046;86;21291;-60
2022/09/19 05:00:38;;;;;;;5.45;3.08;;;;;;;11.70;81.71;99631.25;1634980;86;21810;-60
2022/09/19 05:03:36;;;;;;;4.75;2.42;;;;;;;11.73;81.71;99634.96;1669183;85;21267;-59
2022/09/19 05:06:43;;;;;;;4.62;3.05;;;;;;;11.77;81.71;99634.86;1637682;87;21238;-60
2022/09/19 05:09:50;;;;;;;3.52;2.35;;;;;;;11.79;81.70;99639.12;1671940;84;21790;-55
2022/09/19 05:12:59;;;;;;;4.80;2.72;;;;;;;11.84;81.69;99649.48;1636362;86;21450;-56
2022/09/19 05:16:07;;;;;;;3.47;2.22;;;;;;;11.88;81.61;99655.72;1640770;86;21196;-57
2022/09/19 05:19:22;;;;;;;2.75;2.45;;;;;;;11.90;81.63;99651.41;1642854;86;21226;-55
2022/09/19 05:22:28;;;;;;;4.50;2.70;;;;;;;11.96;81.63;99660.19;1659353;84;21842;-55
2022/09/19 05:25:38;;;;;;;4.15;2.42;;;;;;;12.01;81.66;99661.29;1636797;87;21230;-55
2022/09/19 05:28:45;;;;;;;2.37;2.10;;;;;;;12.08;81.63;99668.19;1598702;86;21390;-54
2022/09/19 05:32:00;;;;;;;8.20;5.72;;;;;;;12.17;81.62;99679.31;1652223;85;21210;-51
2022/09/19 05:35:10;;;;;;;10.38;7.65;;;;;;;12.25;81.52;99684.62;1641846;85;21858;-52
2022/09/19 05:38:31;;;;;;;9.40;4.83;;;;;;;12.34;81.51;99687.52;1626351;86;21820;-52
2022/09/19 05:41:44;;;;;;;4.15;2.50;;;;;;;12.43;81.50;99695.88;1608751;87;21252;-53
2022/09/19 05:44:54;;;;;;;10.98;6.17;;;;;;;12.50;81.47;99695.92;1654743;86;21267;-52
2022/09/19 05:48:00;;;;;;;6.97;3.27;;;;;;;12.58;81.46;99695.22;1631245;86;21817;-53
2022/09/19 05:51:05;;;;;;;5.15;3.85;;;;;;;12.68;81.48;99697.07;1650460;86;21325;-54
2022/09/19 05:54:12;;;;;;;6.05;3.10;;;;;;;12.80;81.48;99701.41;1638385;86;21272;-54
2022/09/19 05:57:35;;;;;;;;;;;;;;;12.90;81.44;99706.86;1642859;86;21229;-53
2022/09/19 06:00:42;;;;;;;6.62;4.62;;;;;;;13.03;81.35;99725.30;1637080;87;20502;-52
2022/09/19 06:03:48;;;;;;;5.42;3.20;;;;;;;13.09;81.36;99722.58;1616008;87;21263;-53
2022/09/19 06:06:58;;;;;;;5.47;2.98;;;;;;;13.17;81.33;99726.51;1637016;87;21260;-53
2022/09/19 06:10:06;;;;;;;4.35;2.52;;;;;;;13.27;81.34;99724.17;1615105;87;21219;-53
2022/09/19 06:13:14;;;;;;;5.55;2.70;;;;;;;13.35;81.30;99739.64;1638366;86;21293;-51
2022/09/19 06:16:21;;;;;;;3.35;2.50;;;;;;;13.41;81.30;99742.37;1636851;87;21273;-54
2022/09/19 06:19:52;;;;;;;5.35;3.10;;;;;;;13.51;81.33;99755.20;1641821;86;21470;-53
2022/09/19 06:23:11;;;;;;;6.65;4.00;;;;;;;13.62;81.35;99760.59;1644824;85;21890;-52
2022/09/19 06:26:17;;;;;;;6.05;2.87;;;;;;;13.75;81.34;99770.78;1610262;89;21552;-53
2022/09/19 06:29:25;;;;;;;5.95;2.80;;;;;;;13.82;81.22;99771.09;1666175;84;21247;-52
2022/09/19 06:32:35;;;;;;;6.08;2.80;;;;;;;13.85;81.11;99768.44;1635516;84;21317;-56
2022/09/19 06:35:43;;;;;;;2.75;2.33;;;;;;;13.87;80.98;99775.95;1674439;83;21239;-53
2022/09/19 06:38:55;;;;;;;5.05;2.70;;;;;;;13.89;80.92;99784.86;1657758;86;21271;-54
2022/09/19 06:42:19;;;;;;;3.40;2.50;;;;;;;13.90;80.84;99785.16;1684971;84;21291;-56
2022/09/19 06:45:40;;;;;;;4.15;2.42;;;;;;;13.93;80.80;99791.61;1650666;84;21230;-53
2022/09/19 06:48:56;;;;;;;4.90;2.33;;;;;;;13.94;80.70;99791.95;1652515;85;21637;-54
2022/09/19 06:52:21;;;;;;;5.87;2.67;;;;;;;13.90;80.56;99798.92;1571887;89;21689;-54
2022/09/19 06:55:29;;;;;;;4.97;2.72;;;;;;;13.85;80.46;99813.83;1666725;85;21226;-55
2022/09/19 06:58:40;;;;;;;3.42;2.50;;;;;;;13.79;80.40;99821.03;1663144;86;21237;-54
2022/09/19 07:01:47;;;;;;;3.67;2.20;;;;;;;13.76;80.39;99826.97;1636338;87;21291;-55
2022/09/19 07:04:56;;;;;;;3.50;2.50;;;;;;;13.73;80.35;99830.66;1637013;87;21255;-53
2022/09/19 07:08:14;;;;;;;4.00;2.60;;;;;;;13.68;80.31;99837.30;1597377;89;21300;-59
2022/09/19 07:11:23;;;;;;;6.08;2.47;;;;;;;13.63;80.28;99837.08;1637641;87;21626;-59
2022/09/19 07:14:40;;;;;;;6.70;2.95;;;;;;;13.60;80.24;99837.50;1637916;87;21259;-59
2022/09/19 07:17:46;;;;;;;3.45;2.65;;;;;;;13.56;80.26;99843.94;1670489;84;21240;-58
2022/09/19 07:20:54;;;;;;;4.35;2.40;;;;;;;13.57;80.28;99853.91;1655594;84;21586;-58
2022/09/19 07:24:01;;;;;;;3.92;2.62;;;;;;;13.56;80.28;99857.69;1649857;84;21239;-58
2022/09/19 07:27:20;;;;;;;5.65;3.05;;;;;;;13.61;80.30;99863.94;1641022;86;21236;-57
2022/09/19 07:30:28;;;;;;;8.00;2.50;;;;;;;13.63;80.25;99870.08;1635706;85;21350;-58
2022/09/19 07:33:32;;;;;;;13.55;8.33;;;;;;;13.64;80.18;99869.88;1630419;87;21781;-59
2022/09/19 07:36:38;;;;;;;5.12;2.50;;;;;;;13.63;80.14;99871.45;1630875;88;21208;-58
2022/09/19 07:39:45;;;;;;;4.62;2.55;;;;;;;13.60;80.04;99877.38;1629876;88;21228;-60
2022/09/19 07:43:02;;;;;;;5.78;3.02;;;;;;;13.54;80.01;99874.40;1607165;88;21220;-58
2022/09/19 07:46:17;;;;;;;3.17;2.50;;;;;;;13.50;80.03;99885.50;1614461;86;21519;-59
2022/09/19 07:49:33;;;;;;;3.42;2.30;;;;;;;13.53;80.13;99898.84;1656760;85;21262;-58
2022/09/19 07:52:41;;;;;;;4.95;2.67;;;;;;;13.62;80.31;99895.35;1634590;86;21216;-60
2022/09/19 07:55:46;;;;;;;4.00;2.40;;;;;;;13.73;80.47;99911.25;1644865;86;21227;-59
2022/09/19 07:58:54;;;;;;;4.22;2.45;;;;;;;13.86;80.57;99911.84;1661464;85;21256;-60
2022/09/19 08:02:03;;;;;;;3.87;2.40;;;;;;;14.00;80.62;99919.06;1660942;86;21205;-57
2022/09/19 08:05:11;;;;;;;3.25;2.10;;;;;;;14.06;80.46;99918.22;1636317;86;21572;-60
2022/09/19 08:08:20;;;;;;;4.50;2.35;;;;;;;14.15;80.48;99917.81;1631123;88;21200;-59
2022/09/19 08:11:28;;;;;;;7.03;3.50;;;;;;;14.27;80.39;99935.97;1631365;87;21192;-58
2022/09/19 08:14:35;;;;;;;3.85;2.42;;;;;;;14.39;80.25;99931.00;1619827;85;21311;-59
2022/09/19 08:17:42;;;;;;;4.25;2.17;;;;;;;14.49;80.12;99932.78;1655768;84;21980;-58
2022/09/19 08:20:58;;;;;;;7.08;2.72;;;;;;;14.56;80.02;99943.80;1654997;85;21307;-57
2022/09/19 08:24:05;;;;;;;4.78;2.60;;;;;;;14.67;79.94;99944.53;1653004;87;21279;-56
2022/09/19 08:27:13;;;;;;;6.20;2.40;;;;;;;14.82;79.89;99943.80;1653124;86;21232;-54
2022/09/19 08:30:21;;;;;;;5.60;2.47;;;;;;;14.89;79.67;99942.72;1605716;89;21512;-57
2022/09/19 08:33:29;;;;;;;4.53;2.40;;;;;;;14.92;79.56;99945.60;1648380;84;21419;-59
2022/09/19 08:36:33;;;;;;;2.60;2.22;;;;;;;14.97;79.45;99944.39;1630252;88;21733;-59
2022/09/19 08:39:29;;;;;;;4.03;2.37;;;;;;;14.93;79.20;99945.91;1630260;86;21225;-57
2022/09/19 08:42:50;;;;;;;4.15;2.37;;;;;;;14.90;79.13;99954.05;1658991;86;21215;-58
2022/09/19 08:46:22;;;;;;;6.25;2.62;;;;;;;14.87;78.99;99957.23;1657772;86;21268;-57
2022/09/19 08:49:41;;;;;;;3.95;1.98;;;;;;;14.82;78.89;99963.95;1658846;85;21263;-57
2022/09/19 08:52:52;;;;;;;2.35;2.00;;;;;;;14.84;78.91;99974.20;1659953;86;21267;-56
2022/09/19 08:56:00;;;;;;;3.98;2.42;;;;;;;14.92;78.92;99958.00;1659954;86;21271;-57
2022/09/19 08:59:12;;;;;;;6.05;3.30;;;;;;;14.98;78.89;99975.88;1659528;86;21641;-56
2022/09/19 09:02:53;;;;;;;4.75;2.65;;;;;;;15.06;78.88;99981.73;1661739;84;21428;-56
2022/09/19 09:06:35;;;;;;;18.87;7.87;;;;;;;15.19;78.85;99989.95;1627395;88;21960;-56
2022/09/19 09:10:07;;;;;;;3.33;2.10;;;;;;;15.24;78.69;99999.81;1629569;86;21651;-54
2022/09/19 09:13:58;;;;;;;3.12;2.27;;;;;;;15.28;78.55;100002.47;1660297;86;21560;-55
2022/09/19 09:17:22;;;;;;;4.83;2.00;;;;;;;15.32;78.51;100002.34;1651702;84;21977;-56
2022/09/19 09:20:57;;;;;;;2.87;1.98;;;;;;;15.37;78.40;100018.23;1653446;86;21622;-58
2022/09/19 09:24:07;;;;;;;3.42;2.10;;;;;;;15.38;78.25;100015.81;1654119;86;21228;-56
2022/09/19 09:27:26;;;;;;;6.20;2.20;;;;;;;15.40;78.13;100015.08;1642673;86;21893;-58
2022/09/19 09:30:35;;;;;;;2.60;1.90;;;;;;;15.45;78.08;100021.66;1651113;86;21204;-58
2022/09/19 09:33:40;;;;;;;7.33;2.95;;;;;;;15.41;77.91;100025.92;1651008;87;21224;-57
2022/09/19 09:36:48;;;;;;;6.37;3.47;;;;;;;15.46;77.91;100037.14;1628561;88;21755;-57
2022/09/19 09:40:00;;;;;;;4.58;2.22;;;;;;;15.45;77.77;100043.73;1630205;87;21176;-56
2022/09/19 09:43:09;;;;;;;2.72;1.90;;;;;;;15.43;77.69;100033.43;1653331;86;21240;-58
2022/09/19 09:46:24;;;;;;;6.95;3.37;;;;;;;15.47;77.72;100031.95;1652301;85;21248;-55
2022/09/19 09:49:29;;;;;;;3.37;2.12;;;;;;;15.57;77.74;100043.37;1632699;86;21301;-57
2022/09/19 09:53:25;;;;;;;2.47;1.82;;;;;;;15.66;77.67;100035.19;1670322;84;21231;-55
2022/09/19 09:57:03;;;;;;;2.62;1.70;;;;;;;15.75;77.57;100031.13;1679459;85;21515;-57
2022/09/19 10:03:53;;;;;;;2.15;1.72;;;;;;;15.77;77.24;100042.80;1659027;86;21291;-59
2022/09/19 10:07:38;;;;;;;2.55;1.80;;;;;;;15.75;77.18;100049.06;1638600;86;21585;-57
2022/09/19 10:11:02;;;;;;;6.12;4.75;;;;;;;15.73;77.06;100061.39;1656095;84;21251;-55
2022/09/19 10:14:12;;;;;;;6.97;3.80;;;;;;;15.60;76.97;100063.63;1670227;83;21724;-56
2022/09/19 10:17:20;;;;;;;12.65;7.60;;;;;;;15.50;76.92;100063.25;1657924;86;21219;-58
2022/09/19 10:20:49;;;;;;;2.30;1.75;;;;;;;15.46;76.94;100066.66;1627982;87;21275;-57
2022/09/19 10:23:57;;;;;;;3.87;2.10;;;;;;;15.51;76.98;100074.59;1658193;85;21845;-57
2022/09/19 10:27:06;;;;;;;2.87;1.65;;;;;;;15.52;76.98;100074.06;1653381;85;21734;-56
2022/09/19 10:30:29;;;;;;;3.70;2.15;;;;;;;15.54;76.93;100085.19;1639085;86;21737;-58
2022/09/19 10:33:48;;;;;;;5.72;2.25;;;;;;;15.59;76.96;100082.64;1630274;87;21255;-55
2022/09/19 10:37:08;;;;;;;4.28;2.35;;;;;;;15.66;76.88;100085.39;1634336;87;21247;-56
2022/09/19 10:40:23;;;;;;;5.60;1.98;;;;;;;15.71;76.84;100089.21;1619325;87;21228;-57
2022/09/19 10:43:37;;;;;;;4.70;2.33;;;;;;;15.74;76.75;100098.95;1619640;87;21223;-57
2022/09/19 10:46:47;;;;;;;4.17;2.67;;;;;;;15.73;76.66;100092.58;1634437;87;21661;-56
2022/09/19 10:49:54;;;;;;;9.28;3.80;;;;;;;15.77;76.61;100097.14;1664524;85;21224;-58
2022/09/19 10:52:46;;;;;;;4.20;2.47;;;;;;;15.80;76.54;100103.61;1653255;85;21539;-58
2022/09/19 10:55:42;;;;;;;3.67;2.30;;;;;;;15.81;76.49;100105.33;1590204;88;21230;-60
2022/09/19 10:58:48;;;;;;;4.22;2.08;;;;;;;15.81;76.40;100104.77;1576375;89;21246;-57
2022/09/19 11:02:34;;;;;;;3.60;2.00;;;;;;;15.81;76.44;100113.05;1575819;91;21258;-57
2022/09/19 11:05:42;;;;;;;3.52;2.27;;;;;;;15.88;76.47;100120.80;1646020;84;21233;-55
2022/09/19 11:08:55;;;;;;;;;;;;;;;15.87;76.25;100133.44;1675807;84;21279;-56
2022/09/19 11:12:17;;;;;;;6.28;3.05;;;;;;;15.81;76.14;100133.75;1665003;85;20217;-55
2022/09/19 11:15:21;;;;;;;12.55;6.35;;;;;;;15.70;76.04;100143.21;1653699;86;21348;-57
2022/09/19 11:18:31;;;;;;;6.28;3.27;;;;;;;15.58;76.01;100145.80;1641754;86;21265;-57
2022/09/19 11:21:49;;;;;;;5.58;2.87;;;;;;;15.61;76.21;100149.50;1607805;89;21834;-56
2022/09/19 11:25:06;;;;;;;3.75;1.70;;;;;;;15.72;76.29;100150.75;1628790;87;21267;-56
2022/09/19 11:28:58;;;;;;;4.45;1.60;;;;;;;15.75;76.12;100164.12;1665878;82;21227;-58
2022/09/19 11:32:37;;;;;;;3.02;1.85;;;;;;;15.67;75.92;100161.06;1671638;83;21228;-58
2022/09/19 11:36:11;;;;;;;5.47;2.47;;;;;;;15.61;75.94;100151.41;1634118;86;21229;-58
2022/09/19 11:39:31;;;;;;;5.58;1.92;;;;;;;15.68;76.08;100156.40;1657448;84;21212;-57
2022/09/19 11:43:01;;;;;;;4.53;2.05;;;;;;;15.82;76.10;100151.17;1665197;85;21563;-57
2022/09/19 11:46:42;;;;;;;5.78;2.70;;;;;;;16.08;76.36;100143.67;1637123;86;21805;-56
2022/09/19 11:50:04;;;;;;;4.28;2.12;;;;;;;16.32;76.16;100145.71;1648100;86;21261;-57
2022/09/19 11:53:40;;;;;;;4.65;1.70;;;;;;;16.59;76.12;100153.90;1650019;84;21769;-56
2022/09/19 11:57:26;;;;;;;3.65;1.72;;;;;;;16.71;75.90;100141.09;1627973;86;21232;-56
2022/09/19 12:00:35;;;;;;;3.37;1.60;;;;;;;16.74;75.62;100150.33;1658730;84;21769;-55
2022/09/19 12:04:02;;;;;;;3.05;1.50;;;;;;;16.75;75.43;100149.25;1663436;84;21973;-55
2022/09/19 12:07:48;;;;;;;3.25;1.35;;;;;;;16.79;75.29;100153.28;1671662;84;21212;-54
2022/09/19 12:11:05;;;;;;;3.37;1.80;;;;;;;16.73;75.03;100156.94;1656608;84;21776;-55
2022/09/19 12:14:11;;;;;;;5.80;1.57;;;;;;;16.72;74.96;100159.36;1642924;85;21311;-53
2022/09/19 12:17:28;;;;;;;1.90;1.30;;;;;;;16.75;74.96;100161.16;1630786;86;21172;-54
2022/09/19 12:20:56;;;;;;;9.58;6.00;;;;;;;16.80;74.86;100166.88;1645263;86;21222;-55
2022/09/19 12:27:46;;;;;;;5.70;2.00;;;;;;;16.85;74.66;100182.80;1632793;86;21763;-56
2022/09/19 12:31:00;;;;;;;1.77;1.50;;;;;;;16.85;74.56;100179.52;1627227;87;21259;-55
2022/09/19 12:34:10;;;;;;;2.98;1.77;;;;;;;16.87;74.43;100183.44;1639918;85;21311;-55
2022/09/19 12:37:46;;;;;;;2.25;1.72;;;;;;;16.88;74.30;100176.30;1656078;86;21242;-54
2022/09/19 12:40:56;;;;;;;3.58;1.40;;;;;;;16.93;74.21;100180.64;1633937;87;21309;-55
2022/09/19 12:44:13;;;;;;;2.65;1.60;;;;;;;16.98;74.08;100193.80;1588153;89;21242;-56
2022/09/19 12:47:50;;;;;;;5.53;1.70;;;;;;;17.01;74.05;100190.58;1626902;87;21631;-56
2022/09/19 12:51:10;;;;;;;4.15;2.50;;;;;;;17.05;73.87;100190.44;1553746;92;21809;-55
2022/09/19 12:54:33;;;;;;;2.92;1.77;;;;;;;17.20;74.00;100182.69;1648286;86;21295;-57
2022/09/19 12:58:03;;;;;;;2.72;1.80;;;;;;;17.28;73.80;100176.89;1639150;86;21250;-54
2022/09/19 13:01:32;;;;;;;2.55;1.62;;;;;;;17.25;73.58;100191.17;1602310;89;21283;-56
2022/09/19 13:04:59;;;;;;;3.50;1.35;;;;;;;17.27;73.53;100201.45;1643897;85;21830;-56
2022/09/19 13:08:13;;;;;;;2.62;1.55;;;;;;;17.23;73.19;100198.31;1624224;88;21263;-54
2022/09/19 13:11:33;;;;;;;1.95;1.50;;;;;;;17.12;72.98;100205.09;1624729;86;21209;-54
2022/09/19 13:14:45;;;;;;;2.02;1.15;;;;;;;17.08;72.98;100216.27;1627846;86;21336;-54
2022/09/19 13:24:57;;;;;;;4.97;2.10;;;;;;;17.05;72.95;100213.42;1602928;89;21776;-55
2022/09/19 13:28:34;;;;;;;3.37;1.67;;;;;;;17.10;72.91;100215.52;1601935;89;21341;-55
2022/09/19 13:32:01;;;;;;;2.12;1.30;;;;;;;17.15;72.79;100215.18;1625869;87;21238;-55
2022/09/19 13:35:14;;;;;;;1.92;1.37;;;;;;;17.17;72.66;100219.11;1636840;86;21225;-55
2022/09/19 13:38:34;;;;;;;2.15;1.55;;;;;;;17.16;72.60;100225.16;1668007;84;21295;-56
2022/09/19 13:41:48;;;;;;;5.58;2.25;;;;;;;17.16;72.49;100231.22;1633980;87;21224;-55
2022/09/19 13:45:01;;;;;;;3.05;2.00;;;;;;;17.10;72.37;100226.58;1637139;87;21215;-55
2022/09/19 13:48:21;;;;;;;3.47;1.70;;;;;;;17.02;72.26;100223.55;1647844;85;21832;-56
2022/09/19 13:51:53;;;;;;;2.50;1.80;;;;;;;16.96;72.20;100230.49;1629611;87;21230;-56
2022/09/19 13:55:10;;;;;;;7.50;2.90;;;;;;;16.92;72.10;100226.48;1622035;87;21246;-56
2022/09/19 13:58:27;;;;;;;11.73;6.15;;;;;;;16.91;72.10;100219.23;1629531;88;21245;-57
2022/09/19 14:01:36;;;;;;;26.95;12.85;;;;;;;16.96;72.07;100210.61;1629362;86;21779;-56
2022/09/19 14:04:53;;;;;;;12.65;4.05;;;;;;;16.97;71.95;100208.14;1610344;86;21303;-56
2022/09/19 14:08:04;;;;;;;4.10;2.33;;;;;;;17.05;71.96;100227.77;1644999;86;21249;-56
2022/09/19 14:11:19;;;;;;;4.75;1.80;;;;;;;17.11;71.87;100224.15;1628923;87;21368;-56
2022/09/19 14:14:50;;;;;;;4.72;2.12;;;;;;;17.07;71.68;100239.47;1628658;88;21703;-56
2022/09/19 14:18:29;;;;;;;6.45;2.45;;;;;;;17.02;71.60;100244.81;1661278;86;21399;-58
2022/09/19 14:21:44;;;;;;;10.30;4.70;;;;;;;16.98;71.58;100240.25;1568868;89;21783;-57
2022/09/19 14:24:52;;;;;;;8.40;3.62;;;;;;;16.96;71.45;100240.17;1667362;84;21879;-57
2022/09/19 14:28:15;;;;;;;3.42;2.25;;;;;;;16.88;71.36;100238.52;1630181;87;21743;-56
2022/09/19 14:31:55;;;;;;;4.33;2.52;;;;;;;16.85;71.36;100244.48;1626562;86;21224;-56
2022/09/19 14:35:34;;;;;;;3.85;2.30;;;;;;;16.82;71.25;100248.22;1579328;90;21822;-56
2022/09/19 14:38:51;;;;;;;4.70;2.35;;;;;;;16.79;71.19;100244.52;1578708;91;21832;-57
2022/09/19 14:42:30;;;;;;;8.53;3.30;;;;;;;16.80;71.11;100250.34;1579798;91;21229;-56
2022/09/19 14:46:11;;;;;;;4.28;2.35;;;;;;;16.81;71.07;100258.42;1626706;87;21228;-57
2022/09/19 14:49:30;;;;;;;5.67;2.17;;;;;;;16.78;70.97;100263.01;1629802;86;21361;-57
2022/09/19 14:52:35;;;;;;;6.28;2.62;;;;;;;16.71;70.86;100273.27;1676362;85;21741;-55
2022/09/19 14:55:57;;;;;;;4.50;2.02;;;;;;;16.67;70.80;100279.42;1642197;86;21243;-56
2022/09/19 14:59:07;;;;;;;1.60;1.47;;;;;;;16.61;70.73;100281.67;1660273;85;21247;-57
2022/09/19 15:02:40;;;;;;;3.33;1.90;;;;;;;16.53;70.62;100284.67;1660734;86;21216;-58
2022/09/19 15:05:46;;;;;;;;;;;;;;;16.40;70.52;100284.14;1662248;86;21236;-56
2022/09/19 15:08:56;;;;;;;4.53;2.10;;;;;;;16.26;70.42;100293.00;1603303;89;20222;-57
2022/09/19 15:12:05;;;;;;;8.30;3.40;;;;;;;16.12;70.39;100291.31;1633840;85;21212;-56
2022/09/19 15:15:12;;;;;;;5.30;3.52;;;;;;;16.01;70.37;100292.48;1585639;89;21785;-56
2022/09/19 15:18:45;;;;;;;4.65;3.00;;;;;;;15.91;70.33;100303.09;1633495;86;21252;-57
2022/09/19 15:21:57;;;;;;;9.45;4.65;;;;;;;15.79;70.28;100297.91;1632201;86;21197;-56
2022/09/19 15:25:00;;;;;;;5.87;3.60;;;;;;;15.66;70.23;100292.36;1617783;86;21245;-55
2022/09/19 15:28:37;;;;;;;5.92;3.90;;;;;;;15.55;70.21;100285.57;1646963;86;21260;-55
2022/09/19 15:31:43;;;;;;;5.35;3.02;;;;;;;15.46;70.18;100293.70;1650957;84;21810;-56
2022/09/19 15:34:52;;;;;;;5.58;2.65;;;;;;;15.35;70.07;100302.56;1650864;86;21216;-56
2022/09/19 15:38:01;;;;;;;4.15;3.00;;;;;;;15.23;69.94;100301.48;1668230;85;21300;-56
2022/09/19 15:41:07;;;;;;;6.00;3.80;;;;;;;15.08;69.73;100307.67;1670178;85;21204;-56